sensor_id;sensor_type;location;lat;lon;timestamp;pressure;altitude;pressure_sealevel;temperature;humidity
43420;BME280;29017;51.514;-0.178;2023-10-13T00:00:40;100394.44;;;17.82;100.00
43420;BME280;29017;51.514;-0.178;2023-10-13T00:03:08;100391.97;;;17.80;100.00
43420;BME280;29017;51.514;-0.178;2023-10-13T00:05:43;100385.22;;;17.78;100.00
43420;BME280;29017;51.514;-0.178;2023-10-13T00:08:11;100378.06;;;17.78;100.00
43420;BME280;29017;51.514;-0.178;2023-10-13T00:10:39;100376.81;;;17.81;100.00
43420;BME280;29017;51.514;-0.178;2023-10-13T00:13:06;100378.66;;;17.80;100.00
43420;BME280;29017;51.514;-0.178;2023-10-13T00:15:53;100371.31;;;17.76;100.00
43420;BME280;29017;51.514;-0.178;2023-10-13T00:18:31;100361.69;;;17.75;100.00
43420;BME280;29017;51.514;-0.178;2023-10-13T00:21:01;100357.41;;;17.74;100.00
43420;BME280;29017;51.514;-0.178;2023-10-13T00:23:44;100358.41;;;17.73;100.00
43420;BME280;29017;51.514;-0.178;2023-10-13T00:26:25;100349.41;;;17.74;100.00
43420;BME280;29017;51.514;-0.178;2023-10-13T00:28:58;100343.69;;;17.70;100.00
43420;BME280;29017;51.514;-0.178;2023-10-13T00:31:40;100336.94;;;17.68;100.00
43420;BME280;29017;51.514;-0.178;2023-10-13T00:34:11;100322.84;;;17.67;100.00
43420;BME280;29017;51.514;-0.178;2023-10-13T00:36:40;100327.13;;;17.68;100.00
43420;BME280;29017;51.514;-0.178;2023-10-13T00:39:27;100324.44;;;17.68;100.00
43420;BME280;29017;51.514;-0.178;2023-10-13T00:41:55;100311.97;;;17.69;100.00
43420;BME280;29017;51.514;-0.178;2023-10-13T00:44:33;100306.81;;;17.74;100.00
43420;BME280;29017;51.514;-0.178;2023-10-13T00:47:10;100296.78;;;17.76;100.00
43420;BME280;29017;51.514;-0.178;2023-10-13T00:49:44;100297.63;;;17.76;100.00
43420;BME280;29017;51.514;-0.178;2023-10-13T00:52:16;100293.13;;;17.77;100.00
43420;BME280;29017;51.514;-0.178;2023-10-13T00:54:45;100284.31;;;17.76;100.00
43420;BME280;29017;51.514;-0.178;2023-10-13T00:57:13;100279.19;;;17.75;100.00
43420;BME280;29017;51.514;-0.178;2023-10-13T00:59:59;100266.69;;;17.75;100.00
43420;BME280;29017;51.514;-0.178;2023-10-13T01:02:39;100262.00;;;17.77;100.00
43420;BME280;29017;51.514;-0.178;2023-10-13T01:05:07;100249.47;;;17.78;100.00
43420;BME280;29017;51.514;-0.178;2023-10-13T01:07:41;100240.28;;;17.74;100.00
43420;BME280;29017;51.514;-0.178;2023-10-13T01:10:11;100235.78;;;17.74;100.00
43420;BME280;29017;51.514;-0.178;2023-10-13T01:12:42;100226.56;;;17.77;100.00
43420;BME280;29017;51.514;-0.178;2023-10-13T01:15:13;100237.81;;;17.79;100.00
43420;BME280;29017;51.514;-0.178;2023-10-13T01:17:45;100234.50;;;17.83;100.00
43420;BME280;29017;51.514;-0.178;2023-10-13T01:20:14;100244.13;;;17.84;100.00
43420;BME280;29017;51.514;-0.178;2023-10-13T01:22:52;100233.25;;;17.86;100.00
43420;BME280;29017;51.514;-0.178;2023-10-13T01:25:25;100223.44;;;17.86;100.00
43420;BME280;29017;51.514;-0.178;2023-10-13T01:27:55;100206.03;;;17.84;100.00
43420;BME280;29017;51.514;-0.178;2023-10-13T01:30:23;100196.81;;;17.86;100.00
43420;BME280;29017;51.514;-0.178;2023-10-13T01:32:52;100192.31;;;17.87;100.00
43420;BME280;29017;51.514;-0.178;2023-10-13T01:35:21;100188.00;;;17.86;100.00
43420;BME280;29017;51.514;-0.178;2023-10-13T01:38:03;100178.75;;;17.88;100.00
43420;BME280;29017;51.514;-0.178;2023-10-13T01:40:30;100178.56;;;17.90;100.00
43420;BME280;29017;51.514;-0.178;2023-10-13T01:43:01;100185.06;;;17.94;100.00
43420;BME280;29017;51.514;-0.178;2023-10-13T01:45:28;100172.94;;;17.98;100.00
43420;BME280;29017;51.514;-0.178;2023-10-13T01:47:58;100161.28;;;17.99;100.00
43420;BME280;29017;51.514;-0.178;2023-10-13T01:50:25;100151.81;;;18.03;100.00
43420;BME280;29017;51.514;-0.178;2023-10-13T01:52:57;100141.97;;;18.04;100.00
43420;BME280;29017;51.514;-0.178;2023-10-13T01:55:39;100131.56;;;18.02;100.00
43420;BME280;29017;51.514;-0.178;2023-10-13T01:58:13;100114.13;;;18.06;100.00
43420;BME280;29017;51.514;-0.178;2023-10-13T02:00:46;100113.09;;;18.07;100.00
43420;BME280;29017;51.514;-0.178;2023-10-13T02:03:15;100111.81;;;18.10;100.00
43420;BME280;29017;51.514;-0.178;2023-10-13T02:05:43;100111.81;;;18.10;100.00
43420;BME280;29017;51.514;-0.178;2023-10-13T02:08:18;100121.66;;;18.09;100.00
43420;BME280;29017;51.514;-0.178;2023-10-13T02:10:53;100099.78;;;18.07;100.00
43420;BME280;29017;51.514;-0.178;2023-10-13T02:13:22;100099.97;;;18.06;100.00
43420;BME280;29017;51.514;-0.178;2023-10-13T02:15:54;100115.19;;;17.99;100.00
43420;BME280;29017;51.514;-0.178;2023-10-13T02:18:24;100099.66;;;17.95;100.00
43420;BME280;29017;51.514;-0.178;2023-10-13T02:21:02;100103.81;;;17.91;100.00
43420;BME280;29017;51.514;-0.178;2023-10-13T02:23:40;100091.56;;;17.84;100.00
43420;BME280;29017;51.514;-0.178;2023-10-13T02:26:28;100084.25;;;17.79;100.00
43420;BME280;29017;51.514;-0.178;2023-10-13T02:29:00;100079.13;;;17.78;100.00
43420;BME280;29017;51.514;-0.178;2023-10-13T02:31:42;100072.78;;;17.79;100.00
43420;BME280;29017;51.514;-0.178;2023-10-13T02:34:09;100070.72;;;17.81;100.00
43420;BME280;29017;51.514;-0.178;2023-10-13T02:36:39;100061.72;;;17.82;100.00
43420;BME280;29017;51.514;-0.178;2023-10-13T02:39:16;100050.84;;;17.83;100.00
43420;BME280;29017;51.514;-0.178;2023-10-13T02:41:44;100036.94;;;17.81;100.00
43420;BME280;29017;51.514;-0.178;2023-10-13T02:44:15;100029.19;;;17.80;100.00
43420;BME280;29017;51.514;-0.178;2023-10-13T02:46:55;100018.75;;;17.78;100.00
43420;BME280;29017;51.514;-0.178;2023-10-13T02:49:24;100017.34;;;17.76;100.00
43420;BME280;29017;51.514;-0.178;2023-10-13T02:51:53;100014.91;;;17.74;100.00
43420;BME280;29017;51.514;-0.178;2023-10-13T02:54:25;100006.91;;;17.74;100.00
43420;BME280;29017;51.514;-0.178;2023-10-13T02:56:58;99984.81;;;17.74;100.00
43420;BME280;29017;51.514;-0.178;2023-10-13T02:59:28;99986.06;;;17.71;100.00
43420;BME280;29017;51.514;-0.178;2023-10-13T03:02:02;99968.69;;;17.69;100.00
43420;BME280;29017;51.514;-0.178;2023-10-13T03:04:48;99957.69;;;17.65;100.00
43420;BME280;29017;51.514;-0.178;2023-10-13T03:07:15;99958.91;;;17.63;100.00
43420;BME280;29017;51.514;-0.178;2023-10-13T03:09:45;99941.97;;;17.57;100.00
43420;BME280;29017;51.514;-0.178;2023-10-13T03:12:19;99943.41;;;17.60;100.00
43420;BME280;29017;51.514;-0.178;2023-10-13T03:14:47;99946.88;;;17.60;100.00
43420;BME280;29017;51.514;-0.178;2023-10-13T03:17:23;99932.31;;;17.63;100.00
43420;BME280;29017;51.514;-0.178;2023-10-13T03:20:02;99933.72;;;17.65;100.00
43420;BME280;29017;51.514;-0.178;2023-10-13T03:22:32;99919.81;;;17.63;100.00
43420;BME280;29017;51.514;-0.178;2023-10-13T03:25:00;99921.66;;;17.63;100.00
43420;BME280;29017;51.514;-0.178;2023-10-13T03:27:32;99908.38;;;17.63;100.00
43420;BME280;29017;51.514;-0.178;2023-10-13T03:30:28;99899.13;;;17.65;100.00
43420;BME280;29017;51.514;-0.178;2023-10-13T03:33:11;99884.81;;;17.66;100.00
43420;BME280;29017;51.514;-0.178;2023-10-13T03:35:40;99884.72;;;17.73;100.00
43420;BME280;29017;51.514;-0.178;2023-10-13T03:38:12;99881.41;;;17.77;100.00
43420;BME280;29017;51.514;-0.178;2023-10-13T03:40:52;99859.88;;;17.79;100.00
43420;BME280;29017;51.514;-0.178;2023-10-13T03:43:38;99857.81;;;17.81;100.00
43420;BME280;29017;51.514;-0.178;2023-10-13T03:46:34;99845.31;;;17.81;100.00
43420;BME280;29017;51.514;-0.178;2023-10-13T03:49:03;99836.88;;;17.84;100.00
43420;BME280;29017;51.514;-0.178;2023-10-13T03:51:33;99835.63;;;17.87;100.00
43420;BME280;29017;51.514;-0.178;2023-10-13T03:54:00;99825.56;;;17.89;100.00
43420;BME280;29017;51.514;-0.178;2023-10-13T03:56:35;99825.69;;;17.94;100.00
43420;BME280;29017;51.514;-0.178;2023-10-13T03:59:08;99812.16;;;17.95;100.00
43420;BME280;29017;51.514;-0.178;2023-10-13T04:01:47;99799.44;;;17.98;100.00
43420;BME280;29017;51.514;-0.178;2023-10-13T04:04:29;99792.84;;;18.00;100.00
43420;BME280;29017;51.514;-0.178;2023-10-13T04:06:56;99783.81;;;18.01;100.00
43420;BME280;29017;51.514;-0.178;2023-10-13T04:09:46;99774.34;;;18.05;100.00
43420;BME280;29017;51.514;-0.178;2023-10-13T04:12:13;99778.16;;;18.09;100.00
43420;BME280;29017;51.514;-0.178;2023-10-13T04:14:59;99775.28;;;18.11;100.00
43420;BME280;29017;51.514;-0.178;2023-10-13T04:17:32;99760.94;;;18.12;100.00
43420;BME280;29017;51.514;-0.178;2023-10-13T04:20:11;99770.31;;;18.14;100.00
43420;BME280;29017;51.514;-0.178;2023-10-13T04:22:42;99751.44;;;18.16;100.00
43420;BME280;29017;51.514;-0.178;2023-10-13T04:27:59;99748.09;;;18.20;100.00
43420;BME280;29017;51.514;-0.178;2023-10-13T04:30:44;99752.16;;;18.23;100.00
43420;BME280;29017;51.514;-0.178;2023-10-13T04:33:32;99745.00;;;18.23;100.00
43420;BME280;29017;51.514;-0.178;2023-10-13T04:38:41;99730.16;;;18.27;100.00
43420;BME280;29017;51.514;-0.178;2023-10-13T04:44:25;99739.53;;;18.30;100.00
43420;BME280;29017;51.514;-0.178;2023-10-13T04:46:55;99747.09;;;18.33;100.00
43420;BME280;29017;51.514;-0.178;2023-10-13T04:49:39;99739.44;;;18.36;100.00
43420;BME280;29017;51.514;-0.178;2023-10-13T04:52:09;99743.03;;;18.42;100.00
43420;BME280;29017;51.514;-0.178;2023-10-13T04:54:43;99718.03;;;18.43;100.00
43420;BME280;29017;51.514;-0.178;2023-10-13T04:57:26;99719.88;;;18.43;100.00
43420;BME280;29017;51.514;-0.178;2023-10-13T05:00:03;99708.19;;;18.44;100.00
43420;BME280;29017;51.514;-0.178;2023-10-13T05:02:42;99698.09;;;18.46;100.00
43420;BME280;29017;51.514;-0.178;2023-10-13T05:05:28;99698.66;;;18.48;100.00
43420;BME280;29017;51.514;-0.178;2023-10-13T05:08:13;99700.31;;;18.49;100.00
43420;BME280;29017;51.514;-0.178;2023-10-13T05:11:08;99696.56;;;18.50;100.00
43420;BME280;29017;51.514;-0.178;2023-10-13T05:13:53;99686.50;;;18.52;100.00
43420;BME280;29017;51.514;-0.178;2023-10-13T05:16:38;99690.56;;;18.54;100.00
43420;BME280;29017;51.514;-0.178;2023-10-13T05:19:25;99693.34;;;18.59;100.00
43420;BME280;29017;51.514;-0.178;2023-10-13T05:22:10;99685.13;;;18.61;100.00
43420;BME280;29017;51.514;-0.178;2023-10-13T05:24:56;99672.13;;;18.64;100.00
43420;BME280;29017;51.514;-0.178;2023-10-13T05:27:41;99677.25;;;18.66;100.00
43420;BME280;29017;51.514;-0.178;2023-10-13T05:31:00;99684.78;;;18.69;100.00
43420;BME280;29017;51.514;-0.178;2023-10-13T05:33:45;99688.00;;;18.71;100.00
43420;BME280;29017;51.514;-0.178;2023-10-13T05:36:31;99655.00;;;18.72;100.00
43420;BME280;29017;51.514;-0.178;2023-10-13T05:39:17;99668.66;;;18.75;100.00
43420;BME280;29017;51.514;-0.178;2023-10-13T05:42:03;99666.09;;;18.80;100.00
43420;BME280;29017;51.514;-0.178;2023-10-13T05:44:49;99673.38;;;18.85;100.00
43420;BME280;29017;51.514;-0.178;2023-10-13T05:47:35;99672.94;;;18.88;100.00
43420;BME280;29017;51.514;-0.178;2023-10-13T05:50:06;99665.03;;;18.93;100.00
43420;BME280;29017;51.514;-0.178;2023-10-13T05:52:49;99659.22;;;18.96;100.00
43420;BME280;29017;51.514;-0.178;2023-10-13T05:58:12;99653.53;;;19.04;100.00
43420;BME280;29017;51.514;-0.178;2023-10-13T06:00:58;99643.41;;;19.06;100.00
43420;BME280;29017;51.514;-0.178;2023-10-13T06:03:43;99634.69;;;19.11;100.00
43420;BME280;29017;51.514;-0.178;2023-10-13T06:06:29;99643.06;;;19.14;100.00
43420;BME280;29017;51.514;-0.178;2023-10-13T06:09:15;99644.44;;;19.17;100.00
43420;BME280;29017;51.514;-0.178;2023-10-13T06:12:00;99632.22;;;19.21;100.00
43420;BME280;29017;51.514;-0.178;2023-10-13T06:14:46;99624.81;;;19.23;100.00
43420;BME280;29017;51.514;-0.178;2023-10-13T06:17:32;99619.56;;;19.28;100.00
43420;BME280;29017;51.514;-0.178;2023-10-13T06:20:18;99615.84;;;19.29;100.00
43420;BME280;29017;51.514;-0.178;2023-10-13T06:23:03;99612.69;;;19.32;100.00
43420;BME280;29017;51.514;-0.178;2023-10-13T06:25:53;99617.31;;;19.37;100.00
43420;BME280;29017;51.514;-0.178;2023-10-13T06:28:39;99610.13;;;19.37;100.00
43420;BME280;29017;51.514;-0.178;2023-10-13T06:31:11;99617.63;;;19.40;100.00
43420;BME280;29017;51.514;-0.178;2023-10-13T06:33:50;99606.72;;;19.42;100.00
43420;BME280;29017;51.514;-0.178;2023-10-13T06:36:17;99597.47;;;19.44;100.00
43420;BME280;29017;51.514;-0.178;2023-10-13T06:38:44;99597.78;;;19.48;100.00
43420;BME280;29017;51.514;-0.178;2023-10-13T06:41:11;99603.22;;;19.53;100.00
43420;BME280;29017;51.514;-0.178;2023-10-13T06:43:47;99596.59;;;19.55;100.00
43420;BME280;29017;51.514;-0.178;2023-10-13T06:46:27;99614.22;;;19.56;100.00
43420;BME280;29017;51.514;-0.178;2023-10-13T06:48:56;99611.88;;;19.60;100.00
43420;BME280;29017;51.514;-0.178;2023-10-13T06:51:26;99618.59;;;19.62;100.00
43420;BME280;29017;51.514;-0.178;2023-10-13T06:53:58;99606.63;;;19.65;100.00
43420;BME280;29017;51.514;-0.178;2023-10-13T06:56:25;99595.47;;;19.68;100.00
43420;BME280;29017;51.514;-0.178;2023-10-13T06:58:56;99608.81;;;19.68;100.00
43420;BME280;29017;51.514;-0.178;2023-10-13T07:01:42;99593.38;;;19.70;100.00
43420;BME280;29017;51.514;-0.178;2023-10-13T07:04:15;99601.69;;;19.74;100.00
43420;BME280;29017;51.514;-0.178;2023-10-13T07:06:44;99599.59;;;19.76;100.00
43420;BME280;29017;51.514;-0.178;2023-10-13T07:09:16;99602.59;;;19.79;100.00
43420;BME280;29017;51.514;-0.178;2023-10-13T07:11:59;99599.91;;;19.79;100.00
43420;BME280;29017;51.514;-0.178;2023-10-13T07:14:49;99590.03;;;19.80;100.00
43420;BME280;29017;51.514;-0.178;2023-10-13T07:17:20;99600.97;;;19.78;100.00
43420;BME280;29017;51.514;-0.178;2023-10-13T07:19:54;99612.69;;;19.77;100.00
43420;BME280;29017;51.514;-0.178;2023-10-13T07:22:23;99611.63;;;19.78;100.00
43420;BME280;29017;51.514;-0.178;2023-10-13T07:24:52;99596.44;;;19.79;100.00
43420;BME280;29017;51.514;-0.178;2023-10-13T07:27:20;99601.78;;;19.79;100.00
43420;BME280;29017;51.514;-0.178;2023-10-13T07:29:52;99592.72;;;19.80;100.00
43420;BME280;29017;51.514;-0.178;2023-10-13T07:32:23;99595.38;;;19.80;100.00
43420;BME280;29017;51.514;-0.178;2023-10-13T07:34:53;99589.22;;;19.79;100.00
43420;BME280;29017;51.514;-0.178;2023-10-13T07:37:24;99595.38;;;19.80;100.00
43420;BME280;29017;51.514;-0.178;2023-10-13T07:39:57;99603.94;;;19.82;100.00
43420;BME280;29017;51.514;-0.178;2023-10-13T07:42:25;99604.22;;;19.80;100.00
43420;BME280;29017;51.514;-0.178;2023-10-13T07:44:58;99605.25;;;19.79;100.00
43420;BME280;29017;51.514;-0.178;2023-10-13T07:47:25;99603.63;;;19.78;100.00
43420;BME280;29017;51.514;-0.178;2023-10-13T07:49:55;99598.28;;;19.78;100.00
43420;BME280;29017;51.514;-0.178;2023-10-13T07:52:24;99606.00;;;19.75;100.00
43420;BME280;29017;51.514;-0.178;2023-10-13T07:54:56;99600.31;;;19.71;100.00
43420;BME280;29017;51.514;-0.178;2023-10-13T07:57:30;99589.31;;;19.68;100.00
43420;BME280;29017;51.514;-0.178;2023-10-13T07:59:57;99595.69;;;19.67;100.00
43420;BME280;29017;51.514;-0.178;2023-10-13T08:02:59;99590.03;;;19.63;100.00
43420;BME280;29017;51.514;-0.178;2023-10-13T08:05:58;99585.19;;;19.60;100.00
43420;BME280;29017;51.514;-0.178;2023-10-13T08:08:32;99590.53;;;19.60;100.00
43420;BME280;29017;51.514;-0.178;2023-10-13T08:11:07;99587.53;;;19.56;100.00
43420;BME280;29017;51.514;-0.178;2023-10-13T08:13:59;99583.72;;;19.52;100.00
43420;BME280;29017;51.514;-0.178;2023-10-13T08:16:39;99589.56;;;19.49;100.00
43420;BME280;29017;51.514;-0.178;2023-10-13T08:19:20;99597.56;;;19.49;100.00
43420;BME280;29017;51.514;-0.178;2023-10-13T08:22:08;99594.09;;;19.49;100.00
43420;BME280;29017;51.514;-0.178;2023-10-13T08:24:46;99587.34;;;19.46;100.00
43420;BME280;29017;51.514;-0.178;2023-10-13T08:27:20;99582.59;;;19.48;100.00
43420;BME280;29017;51.514;-0.178;2023-10-13T08:30:16;99580.75;;;19.49;100.00
43420;BME280;29017;51.514;-0.178;2023-10-13T08:33:09;99586.88;;;19.49;100.00
43420;BME280;29017;51.514;-0.178;2023-10-13T08:35:45;99590.09;;;19.51;100.00
43420;BME280;29017;51.514;-0.178;2023-10-13T08:38:22;99582.81;;;19.47;100.00
43420;BME280;29017;51.514;-0.178;2023-10-13T08:40:58;99592.69;;;19.46;100.00
43420;BME280;29017;51.514;-0.178;2023-10-13T08:43:46;99596.63;;;19.44;100.00
43420;BME280;29017;51.514;-0.178;2023-10-13T08:46:20;99596.44;;;19.45;100.00
43420;BME280;29017;51.514;-0.178;2023-10-13T08:48:59;99595.34;;;19.46;100.00
43420;BME280;29017;51.514;-0.178;2023-10-13T08:51:42;99607.88;;;19.46;100.00
43420;BME280;29017;51.514;-0.178;2023-10-13T08:54:17;99602.31;;;19.47;100.00
43420;BME280;29017;51.514;-0.178;2023-10-13T08:57:06;99605.81;;;19.48;100.00
43420;BME280;29017;51.514;-0.178;2023-10-13T08:59:47;99613.22;;;19.46;100.00
43420;BME280;29017;51.514;-0.178;2023-10-13T09:02:24;99613.69;;;19.43;100.00
43420;BME280;29017;51.514;-0.178;2023-10-13T09:05:10;99615.53;;;19.42;100.00
43420;BME280;29017;51.514;-0.178;2023-10-13T09:07:58;99621.38;;;19.39;100.00
43420;BME280;29017;51.514;-0.178;2023-10-13T09:10:36;99620.56;;;19.39;100.00
43420;BME280;29017;51.514;-0.178;2023-10-13T09:13:11;99608.25;;;19.38;100.00
43420;BME280;29017;51.514;-0.178;2023-10-13T09:15:47;99613.38;;;19.39;100.00
43420;BME280;29017;51.514;-0.178;2023-10-13T09:18:26;99613.69;;;19.43;100.00
43420;BME280;29017;51.514;-0.178;2023-10-13T09:21:16;99619.25;;;19.41;100.00
43420;BME280;29017;51.514;-0.178;2023-10-13T09:24:14;99622.97;;;19.40;100.00
43420;BME280;29017;51.514;-0.178;2023-10-13T09:26:49;99629.13;;;19.41;100.00
43420;BME280;29017;51.514;-0.178;2023-10-13T09:29:21;99617.63;;;19.40;100.00
43420;BME280;29017;51.514;-0.178;2023-10-13T09:31:58;99619.75;;;19.38;100.00
43420;BME280;29017;51.514;-0.178;2023-10-13T09:34:27;99622.19;;;19.40;100.00
43420;BME280;29017;51.514;-0.178;2023-10-13T09:36:59;99621.09;;;19.41;100.00
43420;BME280;29017;51.514;-0.178;2023-10-13T09:39:30;99622.72;;;19.42;100.00
43420;BME280;29017;51.514;-0.178;2023-10-13T09:42:01;99612.06;;;19.42;100.00
43420;BME280;29017;51.514;-0.178;2023-10-13T09:44:32;99610.19;;;19.42;100.00
43420;BME280;29017;51.514;-0.178;2023-10-13T09:47:01;99608.84;;;19.40;100.00
43420;BME280;29017;51.514;-0.178;2023-10-13T09:49:39;99623.22;;;19.39;100.00
43420;BME280;29017;51.514;-0.178;2023-10-13T09:52:17;99613.38;;;19.39;100.00
43420;BME280;29017;51.514;-0.178;2023-10-13T09:54:53;99620.06;;;19.42;100.00
43420;BME280;29017;51.514;-0.178;2023-10-13T09:57:34;99622.50;;;19.43;100.00
43420;BME280;29017;51.514;-0.178;2023-10-13T10:00:18;99615.09;;;19.45;100.00
43420;BME280;29017;51.514;-0.178;2023-10-13T10:03:11;99626.81;;;19.44;100.00
43420;BME280;29017;51.514;-0.178;2023-10-13T10:06:08;99617.97;;;19.44;100.00
43420;BME280;29017;51.514;-0.178;2023-10-13T10:08:43;99621.22;;;19.46;100.00
43420;BME280;29017;51.514;-0.178;2023-10-13T10:17:04;99606.03;;;19.46;100.00
43420;BME280;29017;51.514;-0.178;2023-10-13T10:19:51;99610.66;;;19.51;100.00
43420;BME280;29017;51.514;-0.178;2023-10-13T10:22:29;99595.22;;;19.53;100.00
43420;BME280;29017;51.514;-0.178;2023-10-13T10:25:04;99608.63;;;19.58;100.00
43420;BME280;29017;51.514;-0.178;2023-10-13T10:27:34;99611.31;;;19.58;100.00
43420;BME280;29017;51.514;-0.178;2023-10-13T10:30:02;99618.28;;;19.59;100.00
43420;BME280;29017;51.514;-0.178;2023-10-13T10:32:37;99618.81;;;19.61;100.00
43420;BME280;29017;51.514;-0.178;2023-10-13T10:35:09;99628.22;;;19.63;100.00
43420;BME280;29017;51.514;-0.178;2023-10-13T10:37:42;99618.34;;;19.64;100.00
43420;BME280;29017;51.514;-0.178;2023-10-13T10:40:19;99620.78;;;19.66;100.00
43420;BME280;29017;51.514;-0.178;2023-10-13T10:43:13;99619.72;;;19.67;100.00
43420;BME280;29017;51.514;-0.178;2023-10-13T10:45:59;99609.38;;;19.70;100.00
43420;BME280;29017;51.514;-0.178;2023-10-13T10:48:27;99600.06;;;19.73;100.00
43420;BME280;29017;51.514;-0.178;2023-10-13T10:51:01;99586.00;;;19.77;100.00
43420;BME280;29017;51.514;-0.178;2023-10-13T10:53:42;99584.44;;;19.81;100.00
43420;BME280;29017;51.514;-0.178;2023-10-13T10:56:15;99590.66;;;19.87;100.00
43420;BME280;29017;51.514;-0.178;2023-10-13T10:58:57;99574.72;;;19.92;100.00
43420;BME280;29017;51.514;-0.178;2023-10-13T11:01:29;99571.91;;;19.98;100.00
43420;BME280;29017;51.514;-0.178;2023-10-13T11:04:14;99567.44;;;20.04;100.00
43420;BME280;29017;51.514;-0.178;2023-10-13T11:09:15;99570.00;;;20.16;100.00
43420;BME280;29017;51.514;-0.178;2023-10-13T11:11:50;99564.53;;;20.27;100.00
43420;BME280;29017;51.514;-0.178;2023-10-13T11:14:20;99581.00;;;20.36;100.00
43420;BME280;29017;51.514;-0.178;2023-10-13T11:16:51;99573.34;;;20.44;100.00
43420;BME280;29017;51.514;-0.178;2023-10-13T11:19:18;99579.34;;;20.52;100.00
43420;BME280;29017;51.514;-0.178;2023-10-13T11:21:52;99573.25;;;20.56;100.00
43420;BME280;29017;51.514;-0.178;2023-10-13T11:24:21;99569.75;;;20.56;100.00
43420;BME280;29017;51.514;-0.178;2023-10-13T11:26:49;99575.66;;;20.58;100.00
43420;BME280;29017;51.514;-0.178;2023-10-13T11:29:17;99563.38;;;20.57;100.00
43420;BME280;29017;51.514;-0.178;2023-10-13T11:31:48;99573.47;;;20.55;100.00
43420;BME280;29017;51.514;-0.178;2023-10-13T11:34:26;99584.19;;;20.55;100.00
43420;BME280;29017;51.514;-0.178;2023-10-13T11:37:06;99574.06;;;20.57;100.00
43420;BME280;29017;51.514;-0.178;2023-10-13T11:39:52;99586.66;;;20.61;100.00
43420;BME280;29017;51.514;-0.178;2023-10-13T11:42:19;99574.66;;;20.64;100.00
43420;BME280;29017;51.514;-0.178;2023-10-13T11:44:46;99572.78;;;20.64;100.00
43420;BME280;29017;51.514;-0.178;2023-10-13T11:47:21;99557.06;;;20.68;100.00
43420;BME280;29017;51.514;-0.178;2023-10-13T11:50:15;99568.56;;;20.68;100.00
43420;BME280;29017;51.514;-0.178;2023-10-13T11:52:59;99563.47;;;20.67;100.00
43420;BME280;29017;51.514;-0.178;2023-10-13T11:55:26;99556.81;;;20.69;100.00
43420;BME280;29017;51.514;-0.178;2023-10-13T11:57:54;99547.75;;;20.70;100.00
43420;BME280;29017;51.514;-0.178;2023-10-13T12:00:21;99546.75;;;20.76;100.00
43420;BME280;29017;51.514;-0.178;2023-10-13T12:03:11;99562.03;;;20.81;100.00
43420;BME280;29017;51.514;-0.178;2023-10-13T12:05:57;99558.84;;;20.84;99.82
43420;BME280;29017;51.514;-0.178;2023-10-13T12:08:46;99554.06;;;20.86;100.00
43420;BME280;29017;51.514;-0.178;2023-10-13T12:11:16;99555.97;;;20.90;99.71
43420;BME280;29017;51.514;-0.178;2023-10-13T12:14:12;99558.72;;;20.96;98.85
43420;BME280;29017;51.514;-0.178;2023-10-13T12:16:54;99561.69;;;20.99;97.90
43420;BME280;29017;51.514;-0.178;2023-10-13T12:19:24;99559.88;;;21.05;96.71
43420;BME280;29017;51.514;-0.178;2023-10-13T12:21:53;99566.06;;;21.10;95.43
43420;BME280;29017;51.514;-0.178;2023-10-13T12:24:26;99556.25;;;21.16;94.13
43420;BME280;29017;51.514;-0.178;2023-10-13T12:27:03;99570.22;;;21.18;93.43
43420;BME280;29017;51.514;-0.178;2023-10-13T12:29:46;99560.84;;;21.20;93.68
43420;BME280;29017;51.514;-0.178;2023-10-13T12:32:13;99561.91;;;21.19;93.10
43420;BME280;29017;51.514;-0.178;2023-10-13T12:34:41;99561.91;;;21.19;92.74
43420;BME280;29017;51.514;-0.178;2023-10-13T12:37:24;99561.09;;;21.19;92.58
43420;BME280;29017;51.514;-0.178;2023-10-13T12:40:06;99553.34;;;21.17;91.96
43420;BME280;29017;51.514;-0.178;2023-10-13T12:42:53;99551.16;;;21.14;91.47
43420;BME280;29017;51.514;-0.178;2023-10-13T12:48:25;99557.72;;;21.02;89.93
43420;BME280;29017;51.514;-0.178;2023-10-13T12:51:11;99557.94;;;21.00;88.77
43420;BME280;29017;51.514;-0.178;2023-10-13T12:53:51;99560.38;;;21.02;88.72
43420;BME280;29017;51.514;-0.178;2023-10-13T12:56:19;99552.03;;;20.98;88.59
43420;BME280;29017;51.514;-0.178;2023-10-13T12:58:52;99553.13;;;20.97;88.18
43420;BME280;29017;51.514;-0.178;2023-10-13T13:01:22;99566.22;;;20.99;87.77
43420;BME280;29017;51.514;-0.178;2023-10-13T13:03:52;99559.81;;;21.00;87.00
43420;BME280;29017;51.514;-0.178;2023-10-13T13:06:24;99557.38;;;20.98;85.61
43420;BME280;29017;51.514;-0.178;2023-10-13T13:08:52;99567.84;;;21.00;85.25
43420;BME280;29017;51.514;-0.178;2023-10-13T13:11:19;99567.34;;;21.03;85.68
43420;BME280;29017;51.514;-0.178;2023-10-13T13:13:50;99563.59;;;21.04;84.52
43420;BME280;29017;51.514;-0.178;2023-10-13T13:16:18;99557.44;;;21.03;84.15
43420;BME280;29017;51.514;-0.178;2023-10-13T13:18:51;99562.00;;;21.03;85.18
43420;BME280;29017;51.514;-0.178;2023-10-13T13:21:18;99547.00;;;21.02;84.28
43420;BME280;29017;51.514;-0.178;2023-10-13T13:23:53;99544.06;;;21.03;84.57
43420;BME280;29017;51.514;-0.178;2023-10-13T13:26:23;99541.44;;;21.08;84.92
43420;BME280;29017;51.514;-0.178;2023-10-13T13:28:50;99531.84;;;21.12;85.66
43420;BME280;29017;51.514;-0.178;2023-10-13T13:31:18;99521.72;;;21.14;85.63
43420;BME280;29017;51.514;-0.178;2023-10-13T13:33:45;99525.50;;;21.18;86.94
43420;BME280;29017;51.514;-0.178;2023-10-13T13:36:12;99516.94;;;21.16;86.58
43420;BME280;29017;51.514;-0.178;2023-10-13T13:38:43;99512.41;;;21.17;86.38
43420;BME280;29017;51.514;-0.178;2023-10-13T13:41:16;99508.34;;;21.14;85.58
43420;BME280;29017;51.514;-0.178;2023-10-13T13:46:17;99506.66;;;21.08;87.77
43420;BME280;29017;51.514;-0.178;2023-10-13T13:48:45;99521.59;;;21.04;85.84